sensor_id;sensor_type;location;lat;lon;timestamp;temperature;humidity
4757;DHT22;2392;52.578;13.426;2023-08-06T00:01:52;18.10;99.90
4757;DHT22;2392;52.578;13.426;2023-08-06T00:04:19;18.10;99.90
4757;DHT22;2392;52.578;13.426;2023-08-06T00:06:46;18.10;99.90
4757;DHT22;2392;52.578;13.426;2023-08-06T00:09:13;18.10;99.90
4757;DHT22;2392;52.578;13.426;2023-08-06T00:11:41;18.10;99.90
4757;DHT22;2392;52.578;13.426;2023-08-06T00:14:09;18.10;99.90
4757;DHT22;2392;52.578;13.426;2023-08-06T00:16:36;18.10;99.90
4757;DHT22;2392;52.578;13.426;2023-08-06T00:19:03;18.10;99.90
4757;DHT22;2392;52.578;13.426;2023-08-06T00:21:30;18.10;99.90
4757;DHT22;2392;52.578;13.426;2023-08-06T00:23:57;18.00;99.90
4757;DHT22;2392;52.578;13.426;2023-08-06T00:26:24;18.00;99.90
4757;DHT22;2392;52.578;13.426;2023-08-06T00:28:52;18.00;99.90
4757;DHT22;2392;52.578;13.426;2023-08-06T00:31:20;18.00;99.90
4757;DHT22;2392;52.578;13.426;2023-08-06T00:33:46;18.00;99.90
4757;DHT22;2392;52.578;13.426;2023-08-06T00:36:13;18.00;99.90
4757;DHT22;2392;52.578;13.426;2023-08-06T00:38:40;17.90;99.90
4757;DHT22;2392;52.578;13.426;2023-08-06T00:41:08;17.90;99.90
4757;DHT22;2392;52.578;13.426;2023-08-06T00:43:36;17.90;99.90
4757;DHT22;2392;52.578;13.426;2023-08-06T00:46:04;17.90;99.90
4757;DHT22;2392;52.578;13.426;2023-08-06T00:48:32;17.90;99.90
4757;DHT22;2392;52.578;13.426;2023-08-06T00:50:59;17.90;99.90
4757;DHT22;2392;52.578;13.426;2023-08-06T00:53:26;17.90;99.90
4757;DHT22;2392;52.578;13.426;2023-08-06T00:55:54;17.90;99.90
4757;DHT22;2392;52.578;13.426;2023-08-06T00:58:21;17.90;99.90
4757;DHT22;2392;52.578;13.426;2023-08-06T01:00:48;17.90;99.90
4757;DHT22;2392;52.578;13.426;2023-08-06T01:03:16;17.90;99.90
4757;DHT22;2392;52.578;13.426;2023-08-06T01:05:43;17.90;99.90
4757;DHT22;2392;52.578;13.426;2023-08-06T01:08:19;17.90;99.90
4757;DHT22;2392;52.578;13.426;2023-08-06T01:10:55;17.80;99.90
4757;DHT22;2392;52.578;13.426;2023-08-06T01:13:31;17.80;99.90
4757;DHT22;2392;52.578;13.426;2023-08-06T01:16:00;17.80;99.90
4757;DHT22;2392;52.578;13.426;2023-08-06T01:18:29;17.80;99.90
4757;DHT22;2392;52.578;13.426;2023-08-06T01:20:58;17.80;99.90
4757;DHT22;2392;52.578;13.426;2023-08-06T01:23:25;17.80;99.90
4757;DHT22;2392;52.578;13.426;2023-08-06T01:25:57;17.80;99.90
4757;DHT22;2392;52.578;13.426;2023-08-06T01:28:33;17.80;99.90
4757;DHT22;2392;52.578;13.426;2023-08-06T01:31:07;17.80;99.90
4757;DHT22;2392;52.578;13.426;2023-08-06T01:33:36;17.80;99.90
4757;DHT22;2392;52.578;13.426;2023-08-06T01:36:06;17.80;99.90
4757;DHT22;2392;52.578;13.426;2023-08-06T01:38:34;17.80;99.90
4757;DHT22;2392;52.578;13.426;2023-08-06T01:41:01;17.80;99.90
4757;DHT22;2392;52.578;13.426;2023-08-06T01:43:28;17.80;99.90
4757;DHT22;2392;52.578;13.426;2023-08-06T01:45:55;17.70;99.90
4757;DHT22;2392;52.578;13.426;2023-08-06T01:48:22;17.70;99.90
4757;DHT22;2392;52.578;13.426;2023-08-06T01:50:49;17.70;99.90
4757;DHT22;2392;52.578;13.426;2023-08-06T01:53:17;17.70;99.90
4757;DHT22;2392;52.578;13.426;2023-08-06T01:55:48;17.70;99.90
4757;DHT22;2392;52.578;13.426;2023-08-06T01:58:15;17.70;99.90
4757;DHT22;2392;52.578;13.426;2023-08-06T02:00:42;17.70;99.90
4757;DHT22;2392;52.578;13.426;2023-08-06T02:03:09;17.70;99.90
4757;DHT22;2392;52.578;13.426;2023-08-06T02:05:36;17.70;99.90
4757;DHT22;2392;52.578;13.426;2023-08-06T02:08:04;17.80;99.90
4757;DHT22;2392;52.578;13.426;2023-08-06T02:10:32;17.70;99.90
4757;DHT22;2392;52.578;13.426;2023-08-06T02:13:00;17.70;99.90
4757;DHT22;2392;52.578;13.426;2023-08-06T02:15:26;17.70;99.90
4757;DHT22;2392;52.578;13.426;2023-08-06T02:17:53;17.70;99.90
4757;DHT22;2392;52.578;13.426;2023-08-06T02:20:20;17.70;99.90
4757;DHT22;2392;52.578;13.426;2023-08-06T02:22:47;17.60;99.90
4757;DHT22;2392;52.578;13.426;2023-08-06T02:25:14;17.60;99.90
4757;DHT22;2392;52.578;13.426;2023-08-06T02:27:44;17.60;99.90
4757;DHT22;2392;52.578;13.426;2023-08-06T02:30:11;17.50;99.90
4757;DHT22;2392;52.578;13.426;2023-08-06T02:32:38;17.50;99.90
4757;DHT22;2392;52.578;13.426;2023-08-06T02:35:06;17.50;99.90
4757;DHT22;2392;52.578;13.426;2023-08-06T02:37:33;17.50;99.90
4757;DHT22;2392;52.578;13.426;2023-08-06T02:40:01;17.50;99.90
4757;DHT22;2392;52.578;13.426;2023-08-06T02:42:28;17.40;99.90
4757;DHT22;2392;52.578;13.426;2023-08-06T02:44:56;17.40;99.90
4757;DHT22;2392;52.578;13.426;2023-08-06T02:47:23;17.40;99.90
4757;DHT22;2392;52.578;13.426;2023-08-06T02:49:50;17.40;99.90
4757;DHT22;2392;52.578;13.426;2023-08-06T02:52:19;17.40;99.90
4757;DHT22;2392;52.578;13.426;2023-08-06T02:54:46;17.40;99.90
4757;DHT22;2392;52.578;13.426;2023-08-06T02:57:14;17.40;99.90
4757;DHT22;2392;52.578;13.426;2023-08-06T02:59:41;17.40;99.90
4757;DHT22;2392;52.578;13.426;2023-08-06T03:02:15;17.50;99.90
4757;DHT22;2392;52.578;13.426;2023-08-06T03:04:55;17.30;99.90
4757;DHT22;2392;52.578;13.426;2023-08-06T03:07:26;17.30;99.90
4757;DHT22;2392;52.578;13.426;2023-08-06T03:09:58;17.30;99.90
4757;DHT22;2392;52.578;13.426;2023-08-06T03:12:26;17.30;99.90
4757;DHT22;2392;52.578;13.426;2023-08-06T03:14:54;17.20;99.90
4757;DHT22;2392;52.578;13.426;2023-08-06T03:17:22;17.20;99.90
4757;DHT22;2392;52.578;13.426;2023-08-06T03:19:50;17.10;99.90
4757;DHT22;2392;52.578;13.426;2023-08-06T03:22:18;17.10;99.90
4757;DHT22;2392;52.578;13.426;2023-08-06T03:24:45;17.10;99.90
4757;DHT22;2392;52.578;13.426;2023-08-06T03:27:12;17.10;99.90
4757;DHT22;2392;52.578;13.426;2023-08-06T03:29:41;17.10;99.90
4757;DHT22;2392;52.578;13.426;2023-08-06T03:32:09;17.00;99.90
4757;DHT22;2392;52.578;13.426;2023-08-06T03:34:37;17.10;99.90
4757;DHT22;2392;52.578;13.426;2023-08-06T03:37:05;17.10;99.90
4757;DHT22;2392;52.578;13.426;2023-08-06T03:39:33;17.10;99.90
4757;DHT22;2392;52.578;13.426;2023-08-06T03:42:01;17.10;99.90
4757;DHT22;2392;52.578;13.426;2023-08-06T03:44:28;17.00;99.90
4757;DHT22;2392;52.578;13.426;2023-08-06T03:46:56;17.00;99.90
4757;DHT22;2392;52.578;13.426;2023-08-06T03:49:23;17.00;99.90
4757;DHT22;2392;52.578;13.426;2023-08-06T03:51:52;17.00;99.90
4757;DHT22;2392;52.578;13.426;2023-08-06T03:54:19;17.10;99.90
4757;DHT22;2392;52.578;13.426;2023-08-06T03:56:46;17.10;99.90
4757;DHT22;2392;52.578;13.426;2023-08-06T03:59:15;17.10;99.90
4757;DHT22;2392;52.578;13.426;2023-08-06T04:01:44;17.10;99.90
4757;DHT22;2392;52.578;13.426;2023-08-06T04:04:12;17.10;99.90
4757;DHT22;2392;52.578;13.426;2023-08-06T04:06:39;17.10;99.90
4757;DHT22;2392;52.578;13.426;2023-08-06T04:09:08;17.10;99.90
4757;DHT22;2392;52.578;13.426;2023-08-06T04:11:35;17.10;99.90
4757;DHT22;2392;52.578;13.426;2023-08-06T04:14:02;17.00;99.90
4757;DHT22;2392;52.578;13.426;2023-08-06T04:16:30;17.00;99.90
4757;DHT22;2392;52.578;13.426;2023-08-06T04:18:57;17.00;99.90
4757;DHT22;2392;52.578;13.426;2023-08-06T04:21:24;17.00;99.90
4757;DHT22;2392;52.578;13.426;2023-08-06T04:23:51;16.90;99.90
4757;DHT22;2392;52.578;13.426;2023-08-06T04:26:20;16.90;99.90
4757;DHT22;2392;52.578;13.426;2023-08-06T04:28:48;16.80;99.90
4757;DHT22;2392;52.578;13.426;2023-08-06T04:31:15;16.90;99.90
4757;DHT22;2392;52.578;13.426;2023-08-06T04:33:43;16.90;99.90
4757;DHT22;2392;52.578;13.426;2023-08-06T04:36:13;16.90;99.90
4757;DHT22;2392;52.578;13.426;2023-08-06T04:38:40;16.90;99.90
4757;DHT22;2392;52.578;13.426;2023-08-06T04:41:10;16.90;99.90
4757;DHT22;2392;52.578;13.426;2023-08-06T04:43:39;16.90;99.90
4757;DHT22;2392;52.578;13.426;2023-08-06T04:46:06;17.00;99.90
4757;DHT22;2392;52.578;13.426;2023-08-06T04:48:33;17.00;99.90
4757;DHT22;2392;52.578;13.426;2023-08-06T04:51:00;17.00;99.90
4757;DHT22;2392;52.578;13.426;2023-08-06T04:53:27;16.90;99.90
4757;DHT22;2392;52.578;13.426;2023-08-06T04:55:54;17.00;99.90
4757;DHT22;2392;52.578;13.426;2023-08-06T04:58:21;17.00;99.90
4757;DHT22;2392;52.578;13.426;2023-08-06T05:00:49;17.10;99.90
4757;DHT22;2392;52.578;13.426;2023-08-06T05:03:16;17.10;99.90
4757;DHT22;2392;52.578;13.426;2023-08-06T05:05:43;17.10;99.90
4757;DHT22;2392;52.578;13.426;2023-08-06T05:08:14;17.10;99.90
4757;DHT22;2392;52.578;13.426;2023-08-06T05:10:42;17.10;99.90
4757;DHT22;2392;52.578;13.426;2023-08-06T05:13:09;17.10;99.90
4757;DHT22;2392;52.578;13.426;2023-08-06T05:15:36;17.10;99.90
4757;DHT22;2392;52.578;13.426;2023-08-06T05:18:06;17.10;99.90
4757;DHT22;2392;52.578;13.426;2023-08-06T05:20:36;17.10;99.90
4757;DHT22;2392;52.578;13.426;2023-08-06T05:23:03;17.10;99.90
4757;DHT22;2392;52.578;13.426;2023-08-06T05:25:30;17.10;99.90
4757;DHT22;2392;52.578;13.426;2023-08-06T05:27:57;17.10;99.90
4757;DHT22;2392;52.578;13.426;2023-08-06T05:30:25;17.20;99.90
4757;DHT22;2392;52.578;13.426;2023-08-06T05:32:52;17.20;99.90
4757;DHT22;2392;52.578;13.426;2023-08-06T05:35:21;17.30;99.90
4757;DHT22;2392;52.578;13.426;2023-08-06T05:37:48;17.20;99.90
4757;DHT22;2392;52.578;13.426;2023-08-06T05:40:15;17.20;99.90
4757;DHT22;2392;52.578;13.426;2023-08-06T05:42:42;17.20;99.90
4757;DHT22;2392;52.578;13.426;2023-08-06T05:45:10;17.20;99.90
4757;DHT22;2392;52.578;13.426;2023-08-06T05:47:36;17.20;99.90
4757;DHT22;2392;52.578;13.426;2023-08-06T05:50:04;17.20;99.90
4757;DHT22;2392;52.578;13.426;2023-08-06T05:52:33;17.20;99.90
4757;DHT22;2392;52.578;13.426;2023-08-06T05:55:00;17.30;99.90
4757;DHT22;2392;52.578;13.426;2023-08-06T05:57:27;17.30;99.90
4757;DHT22;2392;52.578;13.426;2023-08-06T05:59:54;17.30;99.90
4757;DHT22;2392;52.578;13.426;2023-08-06T06:02:21;17.30;99.90
4757;DHT22;2392;52.578;13.426;2023-08-06T06:04:48;17.30;99.90
4757;DHT22;2392;52.578;13.426;2023-08-06T06:07:15;17.30;99.90
4757;DHT22;2392;52.578;13.426;2023-08-06T06:09:43;17.40;99.90
4757;DHT22;2392;52.578;13.426;2023-08-06T06:12:10;17.40;99.90
4757;DHT22;2392;52.578;13.426;2023-08-06T06:14:37;17.40;99.90
4757;DHT22;2392;52.578;13.426;2023-08-06T06:17:04;17.50;99.90
4757;DHT22;2392;52.578;13.426;2023-08-06T06:19:31;17.50;99.90
4757;DHT22;2392;52.578;13.426;2023-08-06T06:21:58;17.50;99.90
4757;DHT22;2392;52.578;13.426;2023-08-06T06:24:25;17.60;99.90
4757;DHT22;2392;52.578;13.426;2023-08-06T06:26:53;17.60;99.90
4757;DHT22;2392;52.578;13.426;2023-08-06T06:29:20;17.50;99.90
4757;DHT22;2392;52.578;13.426;2023-08-06T06:31:47;17.50;99.90
4757;DHT22;2392;52.578;13.426;2023-08-06T06:34:14;17.50;99.90
4757;DHT22;2392;52.578;13.426;2023-08-06T06:36:41;17.50;99.90
4757;DHT22;2392;52.578;13.426;2023-08-06T06:39:08;17.50;99.90
4757;DHT22;2392;52.578;13.426;2023-08-06T06:41:35;17.50;99.90
4757;DHT22;2392;52.578;13.426;2023-08-06T06:44:12;17.50;99.90
4757;DHT22;2392;52.578;13.426;2023-08-06T06:46:40;17.60;99.90
4757;DHT22;2392;52.578;13.426;2023-08-06T06:49:07;17.60;99.90
4757;DHT22;2392;52.578;13.426;2023-08-06T06:51:34;17.60;99.90
4757;DHT22;2392;52.578;13.426;2023-08-06T06:54:01;17.70;99.90
4757;DHT22;2392;52.578;13.426;2023-08-06T06:56:28;17.70;99.90
4757;DHT22;2392;52.578;13.426;2023-08-06T06:58:55;17.70;99.90
4757;DHT22;2392;52.578;13.426;2023-08-06T07:01:23;17.80;99.90
4757;DHT22;2392;52.578;13.426;2023-08-06T07:03:50;17.80;99.90
4757;DHT22;2392;52.578;13.426;2023-08-06T07:06:17;17.80;99.90
4757;DHT22;2392;52.578;13.426;2023-08-06T07:08:45;17.80;99.90
4757;DHT22;2392;52.578;13.426;2023-08-06T07:11:12;17.90;99.90
4757;DHT22;2392;52.578;13.426;2023-08-06T07:13:39;17.90;99.90
4757;DHT22;2392;52.578;13.426;2023-08-06T07:16:06;17.90;99.90
4757;DHT22;2392;52.578;13.426;2023-08-06T07:18:34;17.90;99.90
4757;DHT22;2392;52.578;13.426;2023-08-06T07:21:01;17.90;99.90
4757;DHT22;2392;52.578;13.426;2023-08-06T07:23:28;17.90;99.90
4757;DHT22;2392;52.578;13.426;2023-08-06T07:25:55;17.90;99.90
4757;DHT22;2392;52.578;13.426;2023-08-06T07:28:22;17.90;99.90
4757;DHT22;2392;52.578;13.426;2023-08-06T07:30:50;18.00;99.90
4757;DHT22;2392;52.578;13.426;2023-08-06T07:33:17;18.00;99.90
4757;DHT22;2392;52.578;13.426;2023-08-06T07:35:45;18.00;99.90
4757;DHT22;2392;52.578;13.426;2023-08-06T07:38:12;18.00;99.90
4757;DHT22;2392;52.578;13.426;2023-08-06T07:40:39;18.00;99.90
4757;DHT22;2392;52.578;13.426;2023-08-06T07:43:06;18.10;99.90
4757;DHT22;2392;52.578;13.426;2023-08-06T07:45:34;18.10;99.90
4757;DHT22;2392;52.578;13.426;2023-08-06T07:48:01;18.10;99.90
4757;DHT22;2392;52.578;13.426;2023-08-06T07:50:28;18.10;99.90
4757;DHT22;2392;52.578;13.426;2023-08-06T07:52:57;18.10;99.90
4757;DHT22;2392;52.578;13.426;2023-08-06T07:55:25;18.10;99.90
4757;DHT22;2392;52.578;13.426;2023-08-06T07:57:53;18.10;99.90
4757;DHT22;2392;52.578;13.426;2023-08-06T08:00:20;18.00;99.90
4757;DHT22;2392;52.578;13.426;2023-08-06T08:02:47;18.00;99.90
4757;DHT22;2392;52.578;13.426;2023-08-06T08:05:14;18.10;99.90
4757;DHT22;2392;52.578;13.426;2023-08-06T08:07:41;18.00;99.90
4757;DHT22;2392;52.578;13.426;2023-08-06T08:10:11;18.00;99.90
4757;DHT22;2392;52.578;13.426;2023-08-06T08:12:38;18.00;99.90
4757;DHT22;2392;52.578;13.426;2023-08-06T08:15:06;18.10;99.90
4757;DHT22;2392;52.578;13.426;2023-08-06T08:17:33;18.10;99.90
4757;DHT22;2392;52.578;13.426;2023-08-06T08:20:00;18.10;99.90
4757;DHT22;2392;52.578;13.426;2023-08-06T08:22:28;18.10;99.90
4757;DHT22;2392;52.578;13.426;2023-08-06T08:24:55;18.10;99.90
4757;DHT22;2392;52.578;13.426;2023-08-06T08:27:23;18.10;99.90
4757;DHT22;2392;52.578;13.426;2023-08-06T08:29:51;18.10;99.90
4757;DHT22;2392;52.578;13.426;2023-08-06T08:32:18;18.10;99.90
4757;DHT22;2392;52.578;13.426;2023-08-06T08:34:45;18.10;99.90
4757;DHT22;2392;52.578;13.426;2023-08-06T08:37:13;18.10;99.90
4757;DHT22;2392;52.578;13.426;2023-08-06T08:39:40;18.20;99.90
4757;DHT22;2392;52.578;13.426;2023-08-06T08:42:07;18.20;99.90
4757;DHT22;2392;52.578;13.426;2023-08-06T08:44:37;18.30;99.90
4757;DHT22;2392;52.578;13.426;2023-08-06T08:47:05;18.30;99.90
4757;DHT22;2392;52.578;13.426;2023-08-06T08:49:34;18.40;99.90
4757;DHT22;2392;52.578;13.426;2023-08-06T08:52:03;18.40;99.90
4757;DHT22;2392;52.578;13.426;2023-08-06T08:54:32;18.40;99.90
4757;DHT22;2392;52.578;13.426;2023-08-06T08:56:59;18.40;99.90
4757;DHT22;2392;52.578;13.426;2023-08-06T08:59:27;18.40;99.90
4757;DHT22;2392;52.578;13.426;2023-08-06T09:01:57;18.40;99.90
4757;DHT22;2392;52.578;13.426;2023-08-06T09:04:27;18.50;99.90
4757;DHT22;2392;52.578;13.426;2023-08-06T09:06:58;18.50;99.90
4757;DHT22;2392;52.578;13.426;2023-08-06T09:09:28;18.50;99.90
4757;DHT22;2392;52.578;13.426;2023-08-06T09:12:00;18.40;99.90
4757;DHT22;2392;52.578;13.426;2023-08-06T09:14:28;18.50;99.90
4757;DHT22;2392;52.578;13.426;2023-08-06T09:16:56;18.50;99.90
4757;DHT22;2392;52.578;13.426;2023-08-06T09:19:24;18.50;99.90
4757;DHT22;2392;52.578;13.426;2023-08-06T09:21:51;18.50;99.90
4757;DHT22;2392;52.578;13.426;2023-08-06T09:24:18;18.50;99.90
4757;DHT22;2392;52.578;13.426;2023-08-06T09:26:46;18.60;99.90
4757;DHT22;2392;52.578;13.426;2023-08-06T09:29:13;18.60;99.90
4757;DHT22;2392;52.578;13.426;2023-08-06T09:31:41;18.60;99.90
4757;DHT22;2392;52.578;13.426;2023-08-06T09:34:14;18.60;99.90
4757;DHT22;2392;52.578;13.426;2023-08-06T09:36:42;18.60;99.90
4757;DHT22;2392;52.578;13.426;2023-08-06T09:39:16;18.70;99.90
4757;DHT22;2392;52.578;13.426;2023-08-06T09:41:43;18.70;99.90
4757;DHT22;2392;52.578;13.426;2023-08-06T09:44:16;18.80;99.90
4757;DHT22;2392;52.578;13.426;2023-08-06T09:46:47;18.80;99.90
4757;DHT22;2392;52.578;13.426;2023-08-06T09:49:15;18.90;99.90
4757;DHT22;2392;52.578;13.426;2023-08-06T09:51:42;18.90;99.90
4757;DHT22;2392;52.578;13.426;2023-08-06T09:54:12;18.90;99.90
4757;DHT22;2392;52.578;13.426;2023-08-06T09:56:40;18.90;99.90
4757;DHT22;2392;52.578;13.426;2023-08-06T09:59:09;19.00;99.90
4757;DHT22;2392;52.578;13.426;2023-08-06T10:01:37;19.00;99.90
4757;DHT22;2392;52.578;13.426;2023-08-06T10:04:05;19.00;99.90
4757;DHT22;2392;52.578;13.426;2023-08-06T10:06:35;19.00;99.90
4757;DHT22;2392;52.578;13.426;2023-08-06T10:09:02;19.00;99.90
4757;DHT22;2392;52.578;13.426;2023-08-06T10:11:30;19.00;99.90
4757;DHT22;2392;52.578;13.426;2023-08-06T10:14:02;19.10;99.90
4757;DHT22;2392;52.578;13.426;2023-08-06T10:16:31;19.10;99.90
4757;DHT22;2392;52.578;13.426;2023-08-06T10:18:58;19.10;99.90
4757;DHT22;2392;52.578;13.426;2023-08-06T10:21:26;19.10;99.90
4757;DHT22;2392;52.578;13.426;2023-08-06T10:23:57;19.10;99.90
4757;DHT22;2392;52.578;13.426;2023-08-06T10:26:25;19.10;99.90
4757;DHT22;2392;52.578;13.426;2023-08-06T10:28:53;19.10;99.90
4757;DHT22;2392;52.578;13.426;2023-08-06T10:34:04;19.10;99.90
4757;DHT22;2392;52.578;13.426;2023-08-06T10:36:31;19.10;99.90
4757;DHT22;2392;52.578;13.426;2023-08-06T10:39:00;19.00;99.90
4757;DHT22;2392;52.578;13.426;2023-08-06T10:41:28;19.00;99.90
4757;DHT22;2392;52.578;13.426;2023-08-06T10:44:05;19.00;99.90
4757;DHT22;2392;52.578;13.426;2023-08-06T10:46:33;19.00;99.90
4757;DHT22;2392;52.578;13.426;2023-08-06T10:49:01;19.10;99.90
4757;DHT22;2392;52.578;13.426;2023-08-06T10:51:28;19.10;99.90
4757;DHT22;2392;52.578;13.426;2023-08-06T10:53:56;19.10;99.90
4757;DHT22;2392;52.578;13.426;2023-08-06T10:56:25;19.00;99.90
4757;DHT22;2392;52.578;13.426;2023-08-06T10:58:55;19.10;99.90
4757;DHT22;2392;52.578;13.426;2023-08-06T11:01:23;19.10;99.90
4757;DHT22;2392;52.578;13.426;2023-08-06T11:03:50;19.10;99.90
4757;DHT22;2392;52.578;13.426;2023-08-06T11:06:20;19.10;99.90
4757;DHT22;2392;52.578;13.426;2023-08-06T11:08:51;19.10;99.90
4757;DHT22;2392;52.578;13.426;2023-08-06T11:11:19;19.10;99.90
4757;DHT22;2392;52.578;13.426;2023-08-06T11:13:49;19.10;99.90
4757;DHT22;2392;52.578;13.426;2023-08-06T11:16:17;19.10;99.90
4757;DHT22;2392;52.578;13.426;2023-08-06T11:18:45;19.10;99.90
4757;DHT22;2392;52.578;13.426;2023-08-06T11:21:13;19.10;99.90
4757;DHT22;2392;52.578;13.426;2023-08-06T11:23:40;19.10;99.90
4757;DHT22;2392;52.578;13.426;2023-08-06T11:26:08;19.10;99.90
4757;DHT22;2392;52.578;13.426;2023-08-06T11:28:35;19.10;99.90
4757;DHT22;2392;52.578;13.426;2023-08-06T11:31:03;19.00;99.90
4757;DHT22;2392;52.578;13.426;2023-08-06T11:33:30;19.00;99.90
4757;DHT22;2392;52.578;13.426;2023-08-06T11:35:58;19.00;99.90
4757;DHT22;2392;52.578;13.426;2023-08-06T11:38:26;19.00;99.90
4757;DHT22;2392;52.578;13.426;2023-08-06T11:40:54;19.00;99.90
4757;DHT22;2392;52.578;13.426;2023-08-06T11:43:22;19.00;99.90
4757;DHT22;2392;52.578;13.426;2023-08-06T11:45:49;19.00;99.90
4757;DHT22;2392;52.578;13.426;2023-08-06T11:48:17;19.00;99.90
4757;DHT22;2392;52.578;13.426;2023-08-06T11:50:44;19.00;99.90
4757;DHT22;2392;52.578;13.426;2023-08-06T11:53:13;19.00;99.90
4757;DHT22;2392;52.578;13.426;2023-08-06T11:55:41;19.10;99.90
4757;DHT22;2392;52.578;13.426;2023-08-06T11:58:09;19.10;99.90
4757;DHT22;2392;52.578;13.426;2023-08-06T12:00:37;19.10;99.90
4757;DHT22;2392;52.578;13.426;2023-08-06T12:03:05;19.10;99.90
4757;DHT22;2392;52.578;13.426;2023-08-06T12:05:34;19.10;99.90
4757;DHT22;2392;52.578;13.426;2023-08-06T12:08:02;19.10;99.90
4757;DHT22;2392;52.578;13.426;2023-08-06T12:10:31;19.10;99.90
4757;DHT22;2392;52.578;13.426;2023-08-06T12:12:58;19.10;99.90
4757;DHT22;2392;52.578;13.426;2023-08-06T12:15:25;19.10;99.90
4757;DHT22;2392;52.578;13.426;2023-08-06T12:17:52;19.10;99.90
4757;DHT22;2392;52.578;13.426;2023-08-06T12:20:19;19.10;99.90
4757;DHT22;2392;52.578;13.426;2023-08-06T12:22:48;19.10;99.90
4757;DHT22;2392;52.578;13.426;2023-08-06T12:25:15;19.10;99.90
4757;DHT22;2392;52.578;13.426;2023-08-06T12:27:43;19.10;99.90
4757;DHT22;2392;52.578;13.426;2023-08-06T12:30:12;19.10;99.90
4757;DHT22;2392;52.578;13.426;2023-08-06T12:32:39;19.10;99.90
4757;DHT22;2392;52.578;13.426;2023-08-06T12:35:07;19.10;99.90
4757;DHT22;2392;52.578;13.426;2023-08-06T12:37:34;19.10;99.90
4757;DHT22;2392;52.578;13.426;2023-08-06T12:40:04;19.10;99.90
4757;DHT22;2392;52.578;13.426;2023-08-06T12:42:31;19.10;99.90
4757;DHT22;2392;52.578;13.426;2023-08-06T12:44:58;19.10;99.90
4757;DHT22;2392;52.578;13.426;2023-08-06T12:47:25;19.10;99.90
4757;DHT22;2392;52.578;13.426;2023-08-06T12:49:52;19.10;99.90
4757;DHT22;2392;52.578;13.426;2023-08-06T12:52:19;19.10;99.90
4757;DHT22;2392;52.578;13.426;2023-08-06T12:54:46;19.10;99.90
4757;DHT22;2392;52.578;13.426;2023-08-06T12:57:15;19.10;99.90
4757;DHT22;2392;52.578;13.426;2023-08-06T12:59:43;19.00;99.90
4757;DHT22;2392;52.578;13.426;2023-08-06T13:02:10;19.00;99.90
4757;DHT22;2392;52.578;13.426;2023-08-06T13:04:37;19.00;99.90
4757;DHT22;2392;52.578;13.426;2023-08-06T13:07:04;19.00;99.90
4757;DHT22;2392;52.578;13.426;2023-08-06T13:09:32;18.90;99.90
4757;DHT22;2392;52.578;13.426;2023-08-06T13:11:59;18.90;99.90
4757;DHT22;2392;52.578;13.426;2023-08-06T13:14:32;18.90;99.90
4757;DHT22;2392;52.578;13.426;2023-08-06T13:16:59;18.90;99.90
4757;DHT22;2392;52.578;13.426;2023-08-06T13:19:26;18.80;99.90
4757;DHT22;2392;52.578;13.426;2023-08-06T13:22:03;18.80;99.90
4757;DHT22;2392;52.578;13.426;2023-08-06T13:24:32;18.80;99.90
4757;DHT22;2392;52.578;13.426;2023-08-06T13:27:00;18.70;99.90
4757;DHT22;2392;52.578;13.426;2023-08-06T13:29:27;18.70;99.90
4757;DHT22;2392;52.578;13.426;2023-08-06T13:31:55;18.70;99.90
4757;DHT22;2392;52.578;13.426;2023-08-06T13:34:22;18.70;99.90
4757;DHT22;2392;52.578;13.426;2023-08-06T13:36:49;18.80;99.90
4757;DHT22;2392;52.578;13.426;2023-08-06T13:39:16;18.80;99.90
4757;DHT22;2392;52.578;13.426;2023-08-06T13:41:44;18.80;99.90
4757;DHT22;2392;52.578;13.426;2023-08-06T13:44:11;18.80;99.90
4757;DHT22;2392;52.578;13.426;2023-08-06T13:46:40;18.80;99.90
4757;DHT22;2392;52.578;13.426;2023-08-06T13:49:09;18.80;99.90
4757;DHT22;2392;52.578;13.426;2023-08-06T13:51:36;18.80;99.90
4757;DHT22;2392;52.578;13.426;2023-08-06T13:54:04;18.80;99.90
4757;DHT22;2392;52.578;13.426;2023-08-06T13:56:32;18.80;99.90
4757;DHT22;2392;52.578;13.426;2023-08-06T13:58:59;18.70;99.90
4757;DHT22;2392;52.578;13.426;2023-08-06T14:01:26;18.70;99.90
4757;DHT22;2392;52.578;13.426;2023-08-06T14:03:53;18.70;99.90
4757;DHT22;2392;52.578;13.426;2023-08-06T14:06:21;18.70;99.90
4757;DHT22;2392;52.578;13.426;2023-08-06T14:08:49;18.70;99.90
4757;DHT22;2392;52.578;13.426;2023-08-06T14:11:16;18.60;99.90
4757;DHT22;2392;52.578;13.426;2023-08-06T14:13:42;18.60;99.90
4757;DHT22;2392;52.578;13.426;2023-08-06T14:16:09;18.60;99.90
4757;DHT22;2392;52.578;13.426;2023-08-06T14:18:36;18.60;99.90
4757;DHT22;2392;52.578;13.426;2023-08-06T14:21:04;18.60;99.90
4757;DHT22;2392;52.578;13.426;2023-08-06T14:23:32;18.60;99.90
4757;DHT22;2392;52.578;13.426;2023-08-06T14:25:59;18.60;99.90
4757;DHT22;2392;52.578;13.426;2023-08-06T14:28:26;18.60;99.90
4757;DHT22;2392;52.578;13.426;2023-08-06T14:30:53;18.60;99.90
4757;DHT22;2392;52.578;13.426;2023-08-06T14:33:21;18.50;99.90
4757;DHT22;2392;52.578;13.426;2023-08-06T14:35:48;18.50;99.90
4757;DHT22;2392;52.578;13.426;2023-08-06T14:38:15;18.40;99.90
4757;DHT22;2392;52.578;13.426;2023-08-06T14:40:45;18.40;99.90
4757;DHT22;2392;52.578;13.426;2023-08-06T14:43:12;18.30;99.90
4757;DHT22;2392;52.578;13.426;2023-08-06T14:45:39;18.30;99.90
4757;DHT22;2392;52.578;13.426;2023-08-06T14:48:06;18.30;99.90
4757;DHT22;2392;52.578;13.426;2023-08-06T14:50:33;18.30;99.90
4757;DHT22;2392;52.578;13.426;2023-08-06T14:53:00;18.30;99.90
4757;DHT22;2392;52.578;13.426;2023-08-06T14:55:28;18.20;99.90
4757;DHT22;2392;52.578;13.426;2023-08-06T14:57:56;18.20;99.90
4757;DHT22;2392;52.578;13.426;2023-08-06T15:00:23;18.20;99.90
4757;DHT22;2392;52.578;13.426;2023-08-06T15:02:50;18.20;99.90
4757;DHT22;2392;52.578;13.426;2023-08-06T15:05:17;18.20;99.90
4757;DHT22;2392;52.578;13.426;2023-08-06T15:07:44;18.20;99.90
4757;DHT22;2392;52.578;13.426;2023-08-06T15:10:11;18.20;99.90
4757;DHT22;2392;52.578;13.426;2023-08-06T15:12:38;18.20;99.90
4757;DHT22;2392;52.578;13.426;2023-08-06T15:15:08;18.20;99.90
4757;DHT22;2392;52.578;13.426;2023-08-06T15:17:35;18.20;99.90
4757;DHT22;2392;52.578;13.426;2023-08-06T15:20:03;18.20;99.90
4757;DHT22;2392;52.578;13.426;2023-08-06T15:22:30;18.20;99.90
4757;DHT22;2392;52.578;13.426;2023-08-06T15:24:58;18.20;99.90
4757;DHT22;2392;52.578;13.426;2023-08-06T15:27:26;18.20;99.90
4757;DHT22;2392;52.578;13.426;2023-08-06T15:29:53;18.20;99.90
4757;DHT22;2392;52.578;13.426;2023-08-06T15:32:21;18.20;99.90
4757;DHT22;2392;52.578;13.426;2023-08-06T15:34:50;18.20;99.90
4757;DHT22;2392;52.578;13.426;2023-08-06T15:37:17;18.20;99.90
4757;DHT22;2392;52.578;13.426;2023-08-06T15:39:44;18.20;99.90
4757;DHT22;2392;52.578;13.426;2023-08-06T15:42:11;18.10;99.90
4757;DHT22;2392;52.578;13.426;2023-08-06T15:44:40;18.10;99.90
4757;DHT22;2392;52.578;13.426;2023-08-06T15:47:07;18.10;99.90
4757;DHT22;2392;52.578;13.426;2023-08-06T15:49:35;18.10;99.90
4757;DHT22;2392;52.578;13.426;2023-08-06T15:52:03;18.10;99.90